createdAt,value
2023-01-17T00:02:10.433Z,3.49
2023-01-17T00:04:56.264Z,3.49
2023-01-17T00:07:43.253Z,3.53
2023-01-17T00:10:13.268Z,3.53
2023-01-17T00:12:40.413Z,3.55
2023-01-17T00:15:08.057Z,3.57
2023-01-17T00:17:35.077Z,3.57
2023-01-17T00:20:20.516Z,3.50
2023-01-17T00:23:06.281Z,3.42
2023-01-17T00:25:56.472Z,3.34
2023-01-17T00:28:24.717Z,3.42
2023-01-17T00:30:51.779Z,3.44
2023-01-17T00:33:19.826Z,3.48
2023-01-17T00:35:47.018Z,3.50
2023-01-17T00:38:19.726Z,3.48
2023-01-17T00:40:47.474Z,3.51
2023-01-17T00:43:36.720Z,3.55
2023-01-17T00:46:22.983Z,3.58
2023-01-17T00:49:09.056Z,3.61
2023-01-17T00:51:55.782Z,3.62
2023-01-17T00:54:41.800Z,3.62
2023-01-17T00:57:27.473Z,3.60
2023-01-17T01:00:13.137Z,3.62
2023-01-17T01:02:59.198Z,3.68
2023-01-17T01:05:45.075Z,3.73
2023-01-17T01:08:49.751Z,3.76
2023-01-17T01:11:38.291Z,3.75
2023-01-17T01:14:25.723Z,3.66
2023-01-17T01:17:11.382Z,3.70
2023-01-17T01:19:57.018Z,3.63
2023-01-17T01:22:42.637Z,3.72
2023-01-17T01:25:28.423Z,3.77
2023-01-17T01:28:25.755Z,3.77
2023-01-17T01:31:11.618Z,3.78
2023-01-17T01:33:38.795Z,3.81
2023-01-17T01:36:09.067Z,3.83
2023-01-17T01:38:36.300Z,3.70
2023-01-17T01:41:03.307Z,3.76
2023-01-17T01:43:46.944Z,3.85
2023-01-17T01:46:22.363Z,3.86
2023-01-17T01:48:49.625Z,3.88
2023-01-17T01:51:22.107Z,3.92
2023-01-17T01:53:52.800Z,3.94
2023-01-17T01:56:23.556Z,3.92
2023-01-17T01:58:52.604Z,3.90
2023-01-17T02:01:20.438Z,3.98
2023-01-17T02:03:48.291Z,4.00
2023-01-17T02:06:15.321Z,4.00
2023-01-17T02:08:42.879Z,3.91
2023-01-17T02:11:10.025Z,3.89
2023-01-17T02:13:37.220Z,3.83
2023-01-17T02:16:38.896Z,3.82
2023-01-17T02:19:47.658Z,3.84
2023-01-17T02:22:26.163Z,3.90
2023-01-17T02:24:53.177Z,3.92
2023-01-17T02:27:27.617Z,3.80
2023-01-17T02:30:39.660Z,3.85
2023-01-17T02:33:06.726Z,3.84
2023-01-17T02:35:49.282Z,3.90
2023-01-17T02:38:42.954Z,3.95
2023-01-17T02:41:30.043Z,3.97
2023-01-17T02:43:57.298Z,3.99
2023-01-17T02:46:24.817Z,4.02
2023-01-17T02:48:52.187Z,4.00
2023-01-17T02:51:57.699Z,4.01
2023-01-17T02:54:33.759Z,4.01
2023-01-17T02:57:12.638Z,4.01
2023-01-17T02:59:58.451Z,4.00
2023-01-17T03:02:36.015Z,3.98
2023-01-17T03:05:12.737Z,3.95
2023-01-17T03:07:42.060Z,3.96
2023-01-17T03:10:11.781Z,3.91
2023-01-17T03:12:40.037Z,3.88
2023-01-17T03:15:11.006Z,3.95
2023-01-17T03:17:44.338Z,3.95
2023-01-17T03:20:11.680Z,3.92
2023-01-17T03:22:39.217Z,3.88
2023-01-17T03:25:07.267Z,3.88
2023-01-17T03:27:34.417Z,3.86
2023-01-17T03:30:02.075Z,3.86
2023-01-17T03:32:29.217Z,3.87
2023-01-17T03:34:56.344Z,3.86
2023-01-17T03:37:23.303Z,3.94
2023-01-17T03:39:50.441Z,3.92
2023-01-17T03:42:17.636Z,3.93
2023-01-17T03:44:44.641Z,3.95
2023-01-17T03:47:12.446Z,3.96
2023-01-17T03:49:40.260Z,3.96
2023-01-17T03:52:08.040Z,3.97
2023-01-17T03:54:35.098Z,3.88
2023-01-17T03:57:02.200Z,3.94
2023-01-17T03:59:29.186Z,3.92
2023-01-17T04:01:56.267Z,3.94
2023-01-17T04:04:23.318Z,3.97
2023-01-17T04:06:50.404Z,3.99
2023-01-17T04:09:17.585Z,4.02
2023-01-17T04:11:44.707Z,4.04
2023-01-17T04:14:11.724Z,4.05
2023-01-17T04:16:38.993Z,4.06
2023-01-17T04:19:06.004Z,4.01
2023-01-17T04:21:33.096Z,4.02
2023-01-17T04:24:00.158Z,4.03
2023-01-17T04:26:27.226Z,4.02
2023-01-17T04:28:54.260Z,4.03
2023-01-17T04:31:21.326Z,4.05
2023-01-17T04:33:48.489Z,4.07
2023-01-17T04:36:15.440Z,4.09
2023-01-17T04:38:42.603Z,4.11
2023-01-17T04:41:09.899Z,4.07
2023-01-17T04:43:36.899Z,4.07
2023-01-17T04:46:06.069Z,4.03
2023-01-17T04:48:33.500Z,3.99
2023-01-17T04:51:01.550Z,3.98
2023-01-17T04:53:29.037Z,3.92
2023-01-17T04:55:56.196Z,3.79
2023-01-17T04:58:23.478Z,3.74
2023-01-17T05:00:51.942Z,3.68
2023-01-17T05:03:20.597Z,3.57
2023-01-17T05:05:48.459Z,3.52
2023-01-17T05:08:15.882Z,3.50
2023-01-17T05:10:45.679Z,3.46
2023-01-17T05:13:12.850Z,3.44
2023-01-17T05:15:40.230Z,3.43
2023-01-17T05:18:09.097Z,3.40
2023-01-17T05:20:37.054Z,3.40
2023-01-17T05:23:04.337Z,3.40
2023-01-17T05:25:33.092Z,3.39
2023-01-17T05:28:00.898Z,3.37
2023-01-17T05:30:29.976Z,3.35
2023-01-17T05:32:58.621Z,3.28
2023-01-17T05:35:28.774Z,3.28
2023-01-17T05:37:56.418Z,3.26
2023-01-17T05:40:26.262Z,3.11
2023-01-17T05:42:55.858Z,3.11
2023-01-17T05:45:27.872Z,3.11
2023-01-17T05:47:56.582Z,3.06
2023-01-17T05:50:35.393Z,3.00
2023-01-17T05:53:05.692Z,2.98
2023-01-17T05:55:33.585Z,2.95
2023-01-17T05:58:01.359Z,2.92
2023-01-17T06:00:28.984Z,2.95
2023-01-17T06:02:59.816Z,2.92
2023-01-17T06:05:29.215Z,2.93
2023-01-17T06:07:56.899Z,2.88
2023-01-17T06:10:24.701Z,2.85
2023-01-17T06:13:01.734Z,2.83
2023-01-17T06:15:30.094Z,2.81
2023-01-17T06:17:57.413Z,2.78
2023-01-17T06:20:25.013Z,2.68
2023-01-17T06:22:52.338Z,2.71
2023-01-17T06:25:19.693Z,2.68
2023-01-17T06:27:47.175Z,2.65
2023-01-17T06:30:14.658Z,2.61
2023-01-17T06:32:41.858Z,2.62
2023-01-17T06:35:09.505Z,2.67
2023-01-17T06:37:36.700Z,2.66
2023-01-17T06:40:04.254Z,2.52
2023-01-17T06:42:31.534Z,2.52
2023-01-17T06:44:58.695Z,2.49
2023-01-17T06:47:25.900Z,2.55
2023-01-17T06:49:53.414Z,2.60
2023-01-17T06:52:20.614Z,2.64
2023-01-17T06:54:47.812Z,2.69
2023-01-17T06:57:15.053Z,2.73
2023-01-17T06:59:42.253Z,2.76
2023-01-17T07:02:11.254Z,2.77
2023-01-17T07:04:38.693Z,2.82
2023-01-17T07:07:06.055Z,2.85
2023-01-17T07:09:33.293Z,2.88
2023-01-17T07:12:02.322Z,2.91
2023-01-17T07:14:30.059Z,2.95
2023-01-17T07:16:57.613Z,3.00
2023-01-17T07:19:25.257Z,3.01
2023-01-17T07:21:56.141Z,3.05
2023-01-17T07:24:23.373Z,3.08
2023-01-17T07:26:53.453Z,3.10
2023-01-17T07:29:20.707Z,3.10
2023-01-17T07:31:49.298Z,3.06
2023-01-17T07:34:16.698Z,3.03
2023-01-17T07:36:43.940Z,3.03
2023-01-17T07:39:11.965Z,3.03
2023-01-17T07:41:41.584Z,3.03
2023-01-17T07:44:12.459Z,2.88
2023-01-17T07:46:40.150Z,2.78
2023-01-17T07:49:07.340Z,2.83
2023-01-17T07:51:35.462Z,2.85
2023-01-17T07:54:02.656Z,2.95
2023-01-17T07:56:29.876Z,2.93
2023-01-17T07:58:57.052Z,2.95
2023-01-17T08:01:24.478Z,2.98
2023-01-17T08:03:55.204Z,3.01
2023-01-17T08:06:25.583Z,3.07
2023-01-17T08:08:56.701Z,3.10
2023-01-17T08:11:23.987Z,3.19
2023-01-17T08:13:57.653Z,3.22
2023-01-17T08:16:28.968Z,3.27
2023-01-17T08:18:57.008Z,3.31
2023-01-17T08:21:24.815Z,3.35
2023-01-17T08:23:52.776Z,3.38
2023-01-17T08:26:22.634Z,3.42
2023-01-17T08:29:03.260Z,3.41
2023-01-17T08:31:33.464Z,3.40
2023-01-17T08:34:00.918Z,3.48
2023-01-17T08:36:28.988Z,3.53
2023-01-17T08:38:56.292Z,3.59
2023-01-17T08:41:24.692Z,3.64
2023-01-17T08:43:52.307Z,3.69
2023-01-17T08:46:20.091Z,3.73
2023-01-17T08:48:47.307Z,3.79
2023-01-17T08:51:14.653Z,3.83
2023-01-17T08:53:42.364Z,3.87
2023-01-17T08:56:09.857Z,3.91
2023-01-17T08:58:37.144Z,3.96
2023-01-17T09:01:06.162Z,4.01
2023-01-17T09:03:34.781Z,4.11
2023-01-17T09:06:13.854Z,4.20
2023-01-17T09:08:41.898Z,4.31
2023-01-17T09:11:12.152Z,4.41
2023-01-17T09:13:40.179Z,4.46
2023-01-17T09:16:08.226Z,4.42
2023-01-17T09:18:36.781Z,4.43
2023-01-17T09:21:15.504Z,4.42
2023-01-17T09:23:43.338Z,4.44
2023-01-17T09:26:29.026Z,4.46
2023-01-17T09:28:56.693Z,4.42
2023-01-17T09:31:24.742Z,4.39
2023-01-17T09:33:53.590Z,4.32
2023-01-17T09:36:22.421Z,4.28
2023-01-17T09:38:50.173Z,4.27
2023-01-17T09:41:22.453Z,4.29
2023-01-17T09:44:15.023Z,4.31
2023-01-17T09:46:47.700Z,4.36
2023-01-17T09:49:38.223Z,4.46
2023-01-17T09:52:08.518Z,4.53
2023-01-17T09:54:40.334Z,4.66
2023-01-17T09:57:32.095Z,4.70
2023-01-17T10:00:25.375Z,4.81
2023-01-17T10:03:06.434Z,4.92
2023-01-17T10:06:07.854Z,5.06
2023-01-17T10:08:43.974Z,5.17
2023-01-17T10:11:57.721Z,5.21
2023-01-17T10:14:51.974Z,5.31
2023-01-17T10:17:45.413Z,5.43
2023-01-17T10:20:36.893Z,5.53
2023-01-17T10:23:42.453Z,5.61
2023-01-17T10:26:20.973Z,5.67
2023-01-17T10:28:51.667Z,5.74
2023-01-17T10:31:27.974Z,5.86
2023-01-17T10:33:57.462Z,5.91
2023-01-17T10:36:31.938Z,5.95
2023-01-17T10:39:14.216Z,5.97
2023-01-17T10:41:45.469Z,5.90
2023-01-17T10:44:19.497Z,5.88
2023-01-17T10:47:07.213Z,5.89
2023-01-17T10:49:34.494Z,5.83
2023-01-17T10:52:06.871Z,5.84
2023-01-17T10:54:53.694Z,5.84
2023-01-17T10:57:23.783Z,5.84
2023-01-17T10:59:52.500Z,5.85
2023-01-17T11:02:26.512Z,5.89
2023-01-17T11:04:56.173Z,5.90
2023-01-17T11:07:27.016Z,5.89
2023-01-17T11:09:56.933Z,5.93
2023-01-17T11:12:42.093Z,5.97
2023-01-17T11:15:09.314Z,5.97
2023-01-17T11:17:38.933Z,5.96
2023-01-17T11:20:15.672Z,5.97
2023-01-17T11:22:49.383Z,5.95
2023-01-17T11:25:25.462Z,5.93
2023-01-17T11:28:06.622Z,5.93
2023-01-17T11:30:34.315Z,5.93
2023-01-17T11:33:21.414Z,5.91
2023-01-17T11:35:48.613Z,5.94
2023-01-17T11:38:20.780Z,5.95
2023-01-17T11:40:54.253Z,5.96
2023-01-17T11:43:26.629Z,5.97
2023-01-17T11:46:18.438Z,5.97
2023-01-17T11:48:54.990Z,5.99
2023-01-17T11:51:33.535Z,5.99
2023-01-17T11:54:40.468Z,5.98
2023-01-17T11:57:20.811Z,5.99
2023-01-17T11:59:48.864Z,6.00
2023-01-17T12:14:01.970Z,5.05
2023-01-17T12:16:53.699Z,4.97
2023-01-17T12:19:43.893Z,4.98
2023-01-17T12:22:29.934Z,4.99
2023-01-17T12:25:21.935Z,5.03
2023-01-17T12:27:52.491Z,5.11
2023-01-17T12:30:32.253Z,5.20
2023-01-17T12:33:12.412Z,5.25
2023-01-17T12:36:09.174Z,5.31
2023-01-17T12:38:39.318Z,5.35
2023-01-17T12:41:21.742Z,5.39
2023-01-17T12:43:52.893Z,5.41
2023-01-17T12:46:43.592Z,5.42
2023-01-17T12:49:16.855Z,5.45
2023-01-17T12:51:47.507Z,5.45
2023-01-17T12:54:35.535Z,5.45
2023-01-17T12:57:14.008Z,5.47
2023-01-17T12:59:47.187Z,5.46
2023-01-17T13:02:31.661Z,5.51
2023-01-17T13:05:23.936Z,5.56
2023-01-17T13:08:03.141Z,5.56
2023-01-17T13:10:36.620Z,5.62
2023-01-17T13:13:20.493Z,5.61
2023-01-17T13:15:49.834Z,5.61
2023-01-17T13:18:26.211Z,5.66
2023-01-17T13:21:08.532Z,5.66
2023-01-17T13:23:35.813Z,5.64
2023-01-17T13:26:07.700Z,5.65
2023-01-17T13:28:55.076Z,5.66
2023-01-17T13:31:22.430Z,5.68
2023-01-17T13:34:01.760Z,5.67
2023-01-17T13:36:48.374Z,5.68
2023-01-17T13:39:40.100Z,5.65
2023-01-17T13:42:39.503Z,5.65
2023-01-17T13:45:19.780Z,5.65
2023-01-17T13:47:47.332Z,5.64
2023-01-17T13:50:39.061Z,5.61
2023-01-17T13:53:27.813Z,5.62
2023-01-17T13:56:27.214Z,5.59
2023-01-17T13:59:03.100Z,5.62
2023-01-17T14:01:34.998Z,5.61
2023-01-17T14:04:04.899Z,5.61
2023-01-17T14:06:47.054Z,5.58
2023-01-17T14:09:19.972Z,5.59
2023-01-17T14:11:53.735Z,5.59
2023-01-17T14:14:42.224Z,5.58
2023-01-17T14:17:28.333Z,5.56
2023-01-17T14:20:12.736Z,5.58
2023-01-17T14:22:47.734Z,5.57
2023-01-17T14:25:17.981Z,5.59
2023-01-17T14:27:49.784Z,5.58
2023-01-17T14:30:27.706Z,5.60
2023-01-17T14:33:05.054Z,5.58
2023-01-17T14:35:56.936Z,5.60
2023-01-17T14:38:26.753Z,5.59
2023-01-17T14:40:58.174Z,5.60
2023-01-17T14:43:28.508Z,5.60
2023-01-17T14:46:28.933Z,5.59
2023-01-17T14:49:15.694Z,5.55
2023-01-17T14:51:42.976Z,5.55
2023-01-17T14:54:21.814Z,5.54
2023-01-17T14:56:49.013Z,5.50
2023-01-17T14:59:21.454Z,5.49
2023-01-17T15:02:08.220Z,5.48
2023-01-17T15:04:39.955Z,5.47
2023-01-17T15:07:12.712Z,5.42
2023-01-17T15:09:44.335Z,5.41
2023-01-17T15:12:14.750Z,5.41
2023-01-17T15:14:45.621Z,5.41
2023-01-17T15:17:21.613Z,5.38
2023-01-17T15:19:54.181Z,5.35
2023-01-17T15:22:21.980Z,5.34
2023-01-17T15:24:50.269Z,5.30
2023-01-17T15:27:18.136Z,5.23
2023-01-17T15:29:47.018Z,5.24
2023-01-17T15:32:21.174Z,5.22
2023-01-17T15:34:50.986Z,5.26
2023-01-17T15:37:36.935Z,5.22
2023-01-17T15:40:18.294Z,5.24
2023-01-17T15:42:49.180Z,5.21
2023-01-17T15:45:27.422Z,5.21
2023-01-17T15:47:55.133Z,5.20
2023-01-17T15:50:28.216Z,5.18
2023-01-17T15:53:13.575Z,5.16
2023-01-17T15:55:40.974Z,5.14
2023-01-17T15:58:29.133Z,5.11
2023-01-17T16:00:56.792Z,5.05
2023-01-17T16:03:30.731Z,5.01
2023-01-17T16:06:03.383Z,4.97
2023-01-17T16:08:33.882Z,4.89
2023-01-17T16:11:03.466Z,4.81
2023-01-17T16:13:32.660Z,4.76
2023-01-17T16:16:12.988Z,4.72
2023-01-17T16:18:41.062Z,4.68
2023-01-17T16:21:20.501Z,4.65
2023-01-17T16:23:48.614Z,4.66
2023-01-17T16:26:16.335Z,4.66
2023-01-17T16:28:43.704Z,4.63
2023-01-17T16:31:10.917Z,4.60
2023-01-17T16:33:38.295Z,4.60
2023-01-17T16:36:06.059Z,4.60
2023-01-17T16:38:33.294Z,4.58
2023-01-17T16:41:04.814Z,4.61
2023-01-17T16:43:32.137Z,4.60
2023-01-17T16:45:59.554Z,4.59
2023-01-17T16:48:26.815Z,4.62
2023-01-17T16:50:54.141Z,4.56
2023-01-17T16:53:25.200Z,4.49
2023-01-17T16:55:58.853Z,4.52
2023-01-17T16:58:26.637Z,4.53
2023-01-17T17:00:55.628Z,4.55
2023-01-17T17:03:23.216Z,4.53
2023-01-17T17:05:58.460Z,4.54
2023-01-17T17:08:25.888Z,4.59
2023-01-17T17:10:53.295Z,4.58
2023-01-17T17:13:20.740Z,4.52
2023-01-17T17:15:48.033Z,4.54
2023-01-17T17:18:17.453Z,4.57
2023-01-17T17:20:45.510Z,4.59
2023-01-17T17:23:12.915Z,4.55
2023-01-17T17:25:40.253Z,4.54
2023-01-17T17:28:07.502Z,4.52
2023-01-17T17:30:36.383Z,4.48
2023-01-17T17:33:06.421Z,4.44
2023-01-17T17:35:36.773Z,4.39
2023-01-17T17:38:06.897Z,4.34
2023-01-17T17:40:37.174Z,4.33
2023-01-17T17:43:04.452Z,4.33
2023-01-17T17:45:31.660Z,4.28
2023-01-17T17:47:58.975Z,4.27
2023-01-17T17:50:26.260Z,4.24
2023-01-17T17:52:53.655Z,4.26
2023-01-17T17:55:20.856Z,4.20
2023-01-17T17:57:48.157Z,4.19
2023-01-17T18:00:15.670Z,4.17
2023-01-17T18:02:42.854Z,4.17
2023-01-17T18:05:10.432Z,4.14
2023-01-17T18:07:37.700Z,4.12
2023-01-17T18:10:05.555Z,4.14
2023-01-17T18:12:32.738Z,4.13
2023-01-17T18:14:59.896Z,4.12
2023-01-17T18:17:27.255Z,4.13
2023-01-17T18:19:54.416Z,4.15
2023-01-17T18:22:21.754Z,4.17
2023-01-17T18:24:48.975Z,4.18
2023-01-17T18:27:16.222Z,4.17
2023-01-17T18:29:43.454Z,4.16
2023-01-17T18:32:10.621Z,4.11
2023-01-17T18:34:41.781Z,4.09
2023-01-17T18:37:09.131Z,4.09
2023-01-17T18:39:36.492Z,4.05
2023-01-17T18:42:03.775Z,4.02
2023-01-17T18:44:31.134Z,4.05
2023-01-17T18:47:02.228Z,4.05
2023-01-17T18:49:29.619Z,4.02
2023-01-17T18:51:56.899Z,4.00
2023-01-17T18:54:24.143Z,4.07
2023-01-17T18:56:51.493Z,4.06
2023-01-17T18:59:18.952Z,4.08
2023-01-17T19:01:46.789Z,4.08
2023-01-17T19:04:15.349Z,4.10
2023-01-17T19:06:44.909Z,4.00
2023-01-17T19:09:14.335Z,4.00
2023-01-17T19:11:43.334Z,4.02
2023-01-17T19:14:11.375Z,4.00
2023-01-17T19:16:40.583Z,3.96
2023-01-17T19:19:11.413Z,3.98
2023-01-17T19:21:39.294Z,3.98
2023-01-17T19:24:07.015Z,4.01
2023-01-17T19:26:34.584Z,4.00
2023-01-17T19:29:04.039Z,4.01
2023-01-17T19:31:33.109Z,4.05
2023-01-17T19:34:00.461Z,4.04
2023-01-17T19:36:33.987Z,4.02
2023-01-17T19:39:06.276Z,4.03
2023-01-17T19:41:36.315Z,4.01
2023-01-17T19:44:07.143Z,4.01
2023-01-17T19:46:35.719Z,4.02
2023-01-17T19:49:04.744Z,4.04
2023-01-17T19:51:31.938Z,4.00
2023-01-17T19:54:01.620Z,3.98
2023-01-17T19:56:29.544Z,3.97
2023-01-17T19:59:01.618Z,3.96
2023-01-17T20:01:32.470Z,3.95
2023-01-17T20:04:01.307Z,3.96
2023-01-17T20:06:32.417Z,3.98
2023-01-17T20:08:59.976Z,4.01
2023-01-17T20:11:28.464Z,4.00
2023-01-17T20:13:57.585Z,4.01
2023-01-17T20:16:26.500Z,4.02
2023-01-17T20:18:53.823Z,4.05
2023-01-17T20:21:26.515Z,4.05
2023-01-17T20:23:54.934Z,4.05
2023-01-17T20:26:31.338Z,4.03
2023-01-17T20:28:58.578Z,4.02
2023-01-17T20:31:26.134Z,4.01
2023-01-17T20:33:55.740Z,4.01
2023-01-17T20:36:29.296Z,4.03
2023-01-17T20:38:57.537Z,4.03
2023-01-17T20:41:25.721Z,4.03
2023-01-17T20:43:54.320Z,4.05
2023-01-17T20:46:25.053Z,4.02
2023-01-17T20:48:58.175Z,4.04
2023-01-17T20:51:27.777Z,4.03
2023-01-17T20:54:01.413Z,4.04
2023-01-17T20:56:34.766Z,4.06
2023-01-17T20:59:07.894Z,4.07
2023-01-17T21:01:36.475Z,4.05
2023-01-17T21:04:05.057Z,4.03
2023-01-17T21:06:32.254Z,4.01
2023-01-17T21:09:00.333Z,4.00
2023-01-17T21:11:30.921Z,3.99
2023-01-17T21:13:58.215Z,3.99
2023-01-17T21:16:28.288Z,4.00
2023-01-17T21:18:55.859Z,3.98
2023-01-17T21:21:26.148Z,3.95
2023-01-17T21:23:56.173Z,3.94
2023-01-17T21:26:26.056Z,3.95
2023-01-17T21:28:54.260Z,3.89
2023-01-17T21:31:26.100Z,3.83
2023-01-17T21:34:02.215Z,3.77
2023-01-17T21:36:33.455Z,3.76
2023-01-17T21:39:04.980Z,3.79
2023-01-17T21:41:38.534Z,3.78
2023-01-17T21:44:27.370Z,3.78
2023-01-17T21:46:56.514Z,3.83
2023-01-17T21:49:24.220Z,3.82
2023-01-17T21:51:54.591Z,3.81
2023-01-17T21:54:43.373Z,3.87
2023-01-17T21:57:30.217Z,3.90
2023-01-17T21:59:57.506Z,3.90
2023-01-17T22:02:24.879Z,3.86
2023-01-17T22:04:52.296Z,3.91
2023-01-17T22:07:19.500Z,3.93
2023-01-17T22:09:46.773Z,3.98
2023-01-17T22:12:14.056Z,4.02
2023-01-17T22:14:41.255Z,3.99
2023-01-17T22:17:09.015Z,4.03
2023-01-17T22:19:36.182Z,4.07
2023-01-17T22:22:04.356Z,4.10
2023-01-17T22:24:31.334Z,4.11
2023-01-17T22:26:58.532Z,4.14
2023-01-17T22:29:25.773Z,4.14
2023-01-17T22:31:53.016Z,4.16
2023-01-17T22:34:20.292Z,4.17
2023-01-17T22:36:47.499Z,4.19
2023-01-17T22:39:14.813Z,4.21
2023-01-17T22:41:42.060Z,4.25
2023-01-17T22:44:09.338Z,4.26
2023-01-17T22:46:40.723Z,4.28
2023-01-17T22:49:08.738Z,4.29
2023-01-17T22:51:36.186Z,4.29
2023-01-17T22:54:03.419Z,4.29
2023-01-17T22:56:33.054Z,4.29
2023-01-17T22:59:01.353Z,4.28
2023-01-17T23:01:32.854Z,4.30
2023-01-17T23:04:02.858Z,4.30
2023-01-17T23:06:38.576Z,4.28
2023-01-17T23:09:11.865Z,4.30
2023-01-17T23:11:47.512Z,4.33
2023-01-17T23:14:30.632Z,4.31
2023-01-17T23:17:17.662Z,4.28
2023-01-17T23:19:51.367Z,4.27
2023-01-17T23:22:20.951Z,4.32
2023-01-17T23:25:12.132Z,4.32
2023-01-17T23:28:03.493Z,4.28
2023-01-17T23:30:37.616Z,4.26
2023-01-17T23:33:11.138Z,4.28
2023-01-17T23:35:42.057Z,4.25
2023-01-17T23:38:26.255Z,4.24
2023-01-17T23:41:17.905Z,4.26
2023-01-17T23:43:45.101Z,4.29
2023-01-17T23:46:13.266Z,4.28
2023-01-17T23:48:40.373Z,4.31
2023-01-17T23:51:08.508Z,4.29
2023-01-17T23:53:38.132Z,4.33
2023-01-17T23:56:14.821Z,4.34
2023-01-17T23:58:42.093Z,4.38
